createdAt,value
2019-02-27T00:00:15.509Z,84.45
2019-02-27T00:02:48.550Z,84.04
2019-02-27T00:05:21.637Z,84.23
2019-02-27T00:07:54.847Z,83.98
2019-02-27T00:10:28.896Z,83.79
2019-02-27T00:13:02.258Z,83.71
2019-02-27T00:15:37.740Z,83.61
2019-02-27T00:18:10.189Z,83.39
2019-02-27T00:20:43.803Z,83.58
2019-02-27T00:23:17.235Z,83.78
2019-02-27T00:25:50.004Z,83.58
2019-02-27T00:28:23.891Z,83.90
2019-02-27T00:30:57.587Z,84.25
2019-02-27T00:33:29.315Z,84.41
2019-02-27T00:36:02.012Z,84.47
2019-02-27T00:38:34.692Z,84.62
2019-02-27T00:41:12.046Z,84.94
2019-02-27T00:43:42.117Z,85.10
2019-02-27T00:46:15.274Z,85.38
2019-02-27T00:48:48.472Z,85.38
2019-02-27T00:51:22.193Z,85.91
2019-02-27T00:53:55.933Z,85.97
2019-02-27T00:56:31.998Z,85.82
2019-02-27T00:59:04.691Z,86.73
2019-02-27T01:01:37.888Z,86.46
2019-02-27T01:04:11.138Z,86.96
2019-02-27T01:06:45.059Z,87.31
2019-02-27T01:09:20.378Z,87.55
2019-02-27T01:11:53.749Z,87.53
2019-02-27T01:14:26.232Z,88.05
2019-02-27T01:16:59.099Z,88.04
2019-02-27T01:19:32.665Z,88.58
2019-02-27T01:22:05.598Z,88.88
2019-02-27T01:24:38.657Z,88.87
2019-02-27T01:27:11.813Z,89.01
2019-02-27T01:29:45.690Z,89.07
2019-02-27T01:32:19.588Z,89.05
2019-02-27T01:34:53.106Z,89.29
2019-02-27T01:37:25.964Z,89.41
2019-02-27T01:39:58.707Z,89.38
2019-02-27T01:42:32.973Z,89.16
2019-02-27T01:45:09.241Z,89.29
2019-02-27T01:47:43.129Z,89.93
2019-02-27T01:50:34.131Z,89.39
2019-02-27T01:53:09.075Z,89.29
2019-02-27T01:55:41.858Z,88.99
2019-02-27T01:58:14.611Z,89.52
2019-02-27T02:00:48.152Z,89.50
2019-02-27T02:03:21.497Z,89.49
2019-02-27T02:05:58.843Z,89.64
2019-02-27T02:08:29.212Z,89.36
2019-02-27T02:11:02.129Z,90.03
2019-02-27T02:13:53.787Z,90.03
2019-02-27T02:16:47.223Z,90.70
2019-02-27T02:19:48.781Z,90.83
2019-02-27T02:23:20.548Z,90.36
2019-02-27T02:26:43.849Z,90.17
2019-02-27T02:30:07.470Z,90.42
2019-02-27T02:33:31.053Z,90.67
2019-02-27T02:37:03.805Z,90.81
2019-02-27T02:40:04.512Z,90.76
2019-02-27T02:43:41.575Z,91.42
2019-02-27T02:46:55.061Z,92.42
2019-02-27T02:50:29.045Z,93.32
2019-02-27T02:54:01.728Z,93.81
2019-02-27T02:57:05.084Z,94.07
2019-02-27T03:00:27.237Z,94.29
2019-02-27T03:04:06.036Z,94.02
2019-02-27T03:07:30.677Z,93.80
2019-02-27T03:10:20.943Z,94.54
2019-02-27T03:13:47.365Z,94.81
2019-02-27T03:17:53.695Z,95.19
2019-02-27T03:21:27.376Z,94.78
2019-02-27T03:24:50.787Z,94.95
2019-02-27T03:28:27.172Z,94.84
2019-02-27T03:31:42.341Z,94.83
2019-02-27T03:35:18.354Z,94.96
2019-02-27T03:38:24.099Z,95.57
2019-02-27T03:41:36.176Z,95.72
2019-02-27T03:45:09.991Z,95.44
2019-02-27T03:48:35.259Z,95.45
2019-02-27T03:51:48.061Z,95.33
2019-02-27T03:54:59.337Z,95.23
2019-02-27T03:58:30.643Z,95.70
2019-02-27T04:02:12.074Z,95.68
2019-02-27T04:05:53.989Z,95.20
2019-02-27T04:08:55.352Z,95.13
2019-02-27T04:11:28.059Z,95.30
2019-02-27T04:14:04.714Z,94.82
2019-02-27T04:16:38.141Z,95.04
2019-02-27T04:19:10.585Z,94.90
2019-02-27T04:21:43.964Z,94.79
2019-02-27T04:24:15.297Z,95.01
2019-02-27T04:26:48.131Z,95.11
2019-02-27T04:29:21.879Z,95.19
2019-02-27T04:31:54.413Z,95.62
2019-02-27T04:34:27.117Z,96.53
2019-02-27T04:36:59.808Z,96.90
2019-02-27T04:39:32.900Z,96.80
2019-02-27T04:42:05.435Z,97.39
2019-02-27T04:44:39.054Z,96.73
2019-02-27T04:47:12.125Z,96.69
2019-02-27T04:49:44.757Z,97.31
2019-02-27T04:52:18.055Z,97.60
2019-02-27T04:54:49.719Z,97.25
2019-02-27T04:57:22.365Z,98.93
2019-02-27T04:59:55.763Z,98.27
2019-02-27T05:02:28.886Z,98.22
2019-02-27T05:05:01.772Z,98.23
2019-02-27T05:07:34.894Z,98.59
2019-02-27T05:10:07.938Z,98.66
2019-02-27T05:12:39.459Z,98.40
2019-02-27T05:15:11.841Z,98.90
2019-02-27T05:17:45.313Z,99.35
2019-02-27T05:20:17.795Z,99.07
2019-02-27T05:22:50.803Z,99.22
2019-02-27T05:25:23.596Z,99.42
2019-02-27T05:28:01.017Z,99.39
2019-02-27T05:30:31.621Z,99.43
2019-02-27T05:33:03.658Z,99.50
2019-02-27T05:35:35.655Z,99.05
2019-02-27T05:38:08.210Z,98.97
2019-02-27T05:40:41.396Z,99.17
2019-02-27T05:43:15.522Z,99.20
2019-02-27T05:45:47.929Z,99.32
2019-02-27T05:48:21.052Z,99.38
2019-02-27T05:50:53.756Z,99.53
2019-02-27T05:53:27.238Z,99.50
2019-02-27T05:55:59.614Z,99.35
2019-02-27T05:58:33.120Z,99.48
2019-02-27T06:01:05.902Z,99.63
2019-02-27T06:03:39.329Z,99.82
2019-02-27T06:06:12.453Z,100.00
2019-02-27T06:08:45.586Z,100.00
2019-02-27T06:11:16.908Z,100.00
2019-02-27T06:13:48.967Z,100.00
2019-02-27T06:16:22.299Z,100.00
2019-02-27T06:18:56.276Z,100.00
2019-02-27T06:21:31.539Z,100.00
2019-02-27T06:24:04.645Z,100.00
2019-02-27T06:26:36.989Z,100.00
2019-02-27T06:29:09.899Z,100.00
2019-02-27T06:31:41.841Z,100.00
2019-02-27T06:34:15.240Z,100.00
2019-02-27T06:36:49.553Z,100.00
2019-02-27T06:39:22.380Z,100.00
2019-02-27T06:41:55.125Z,100.00
2019-02-27T06:44:29.019Z,100.00
2019-02-27T06:47:01.469Z,100.00
2019-02-27T06:49:34.579Z,100.00
2019-02-27T06:52:09.264Z,100.00
2019-02-27T06:54:42.376Z,100.00
2019-02-27T06:57:15.568Z,100.00
2019-02-27T06:59:46.989Z,100.00
2019-02-27T07:02:21.711Z,100.00
2019-02-27T07:04:53.701Z,100.00
2019-02-27T07:07:28.818Z,100.00
2019-02-27T07:10:01.891Z,100.00
2019-02-27T07:12:35.342Z,100.00
2019-02-27T07:15:10.276Z,100.00
2019-02-27T07:17:44.496Z,100.00
2019-02-27T07:20:17.573Z,100.00
2019-02-27T07:22:49.344Z,100.00
2019-02-27T07:25:22.445Z,100.00
2019-02-27T07:27:55.559Z,100.00
2019-02-27T07:30:28.342Z,100.00
2019-02-27T07:33:00.842Z,100.00
2019-02-27T07:35:34.144Z,100.00
2019-02-27T07:38:07.141Z,100.00
2019-02-27T07:40:42.752Z,100.00
2019-02-27T07:43:14.422Z,100.00
2019-02-27T07:45:56.086Z,100.00
2019-02-27T07:48:29.458Z,100.00
2019-02-27T07:52:06.961Z,100.00
2019-02-27T07:54:50.467Z,100.00
2019-02-27T07:57:23.003Z,100.00
2019-02-27T07:59:56.830Z,100.00
2019-02-27T08:02:29.901Z,100.00
2019-02-27T08:05:02.170Z,100.00
2019-02-27T08:07:35.967Z,99.91
2019-02-27T08:10:12.283Z,99.37
2019-02-27T08:12:45.353Z,99.23
2019-02-27T08:15:18.041Z,98.80
2019-02-27T08:17:51.118Z,97.85
2019-02-27T08:20:23.590Z,97.02
2019-02-27T08:22:57.967Z,96.29
2019-02-27T08:25:30.489Z,95.15
2019-02-27T08:28:03.222Z,93.92
2019-02-27T08:30:35.954Z,92.51
2019-02-27T08:33:09.343Z,91.68
2019-02-27T08:35:41.884Z,91.15
2019-02-27T08:38:15.439Z,90.40
2019-02-27T08:40:48.286Z,89.71
2019-02-27T08:43:21.143Z,88.50
2019-02-27T08:45:54.279Z,88.28
2019-02-27T08:48:25.726Z,87.22
2019-02-27T08:50:58.640Z,86.96
2019-02-27T08:53:30.512Z,85.74
2019-02-27T08:56:03.179Z,84.64
2019-02-27T08:58:36.860Z,83.86
2019-02-27T09:01:11.587Z,82.86
2019-02-27T09:03:44.982Z,82.19
2019-02-27T09:06:18.731Z,81.46
2019-02-27T09:08:51.415Z,80.41
2019-02-27T09:11:23.821Z,79.86
2019-02-27T09:13:56.843Z,79.18
2019-02-27T09:16:29.589Z,78.17
2019-02-27T09:19:02.312Z,76.76
2019-02-27T09:21:35.325Z,75.94
2019-02-27T09:24:08.117Z,75.12
2019-02-27T09:26:42.339Z,73.98
2019-02-27T09:29:18.591Z,73.64
2019-02-27T09:31:51.205Z,73.21
2019-02-27T09:34:26.651Z,72.35
2019-02-27T09:36:59.097Z,73.05
2019-02-27T09:39:32.565Z,72.29
2019-02-27T09:42:05.127Z,71.55
2019-02-27T09:44:38.185Z,70.46
2019-02-27T09:47:10.676Z,69.56
2019-02-27T09:49:43.863Z,68.92
2019-02-27T09:52:16.592Z,68.20
2019-02-27T09:54:50.115Z,68.36
2019-02-27T09:57:24.124Z,66.36
2019-02-27T09:59:57.551Z,66.44
2019-02-27T10:02:30.080Z,65.83
2019-02-27T10:05:03.780Z,65.37
2019-02-27T10:07:37.810Z,65.12
2019-02-27T10:10:11.039Z,64.13
2019-02-27T10:12:43.969Z,62.59
2019-02-27T10:15:17.090Z,62.51
2019-02-27T10:17:49.554Z,61.30
2019-02-27T10:20:22.630Z,60.44
2019-02-27T10:22:55.641Z,60.70
2019-02-27T10:25:28.160Z,60.10
2019-02-27T10:28:04.315Z,59.13
2019-02-27T10:30:37.237Z,56.49
2019-02-27T10:33:11.114Z,54.68
2019-02-27T10:35:44.419Z,55.53
2019-02-27T10:38:17.203Z,54.08
2019-02-27T10:40:50.575Z,53.66
2019-02-27T10:43:24.461Z,52.22
2019-02-27T10:45:57.414Z,52.27
2019-02-27T10:48:31.130Z,51.21
2019-02-27T10:51:03.795Z,50.48
2019-02-27T10:53:37.582Z,51.15
2019-02-27T10:56:10.233Z,50.44
2019-02-27T10:58:45.026Z,50.41
2019-02-27T11:01:18.608Z,49.43
2019-02-27T11:03:51.699Z,48.60
2019-02-27T11:06:33.483Z,49.03
2019-02-27T11:09:04.473Z,49.29
2019-02-27T11:11:35.016Z,47.82
2019-02-27T11:14:07.061Z,48.64
2019-02-27T11:16:39.787Z,46.77
2019-02-27T11:19:14.136Z,47.18
2019-02-27T11:21:45.875Z,46.43
2019-02-27T11:24:17.645Z,45.79
2019-02-27T11:26:49.975Z,46.36
2019-02-27T11:29:23.836Z,47.16
2019-02-27T11:31:57.484Z,46.05
2019-02-27T11:34:31.292Z,47.16
2019-02-27T11:37:04.416Z,45.71
2019-02-27T11:39:37.927Z,47.72
2019-02-27T11:42:11.681Z,44.86
2019-02-27T11:44:49.466Z,46.78
2019-02-27T11:47:19.223Z,46.23
2019-02-27T11:49:52.622Z,45.88
2019-02-27T11:52:28.679Z,46.47
2019-02-27T11:55:00.537Z,45.00
2019-02-27T11:57:33.613Z,45.95
2019-02-27T12:00:08.052Z,44.96
2019-02-27T12:02:40.315Z,45.27
2019-02-27T12:05:14.765Z,41.86
2019-02-27T12:07:50.572Z,44.30
2019-02-27T12:10:24.073Z,43.07
2019-02-27T12:13:00.731Z,43.98
2019-02-27T12:15:32.107Z,43.01
2019-02-27T12:18:05.423Z,41.79
2019-02-27T12:20:39.088Z,41.85
2019-02-27T12:23:12.007Z,39.94
2019-02-27T12:25:45.438Z,42.13
2019-02-27T12:28:19.670Z,41.37
2019-02-27T12:30:52.777Z,40.51
2019-02-27T12:33:29.214Z,41.66
2019-02-27T12:36:00.701Z,41.52
2019-02-27T12:38:34.383Z,42.30
2019-02-27T12:41:07.465Z,42.05
2019-02-27T12:43:39.921Z,40.29
2019-02-27T12:46:13.661Z,39.44
2019-02-27T12:48:47.089Z,43.37
2019-02-27T12:51:21.093Z,39.71
2019-02-27T12:53:54.616Z,39.61
2019-02-27T12:56:28.442Z,42.08
2019-02-27T12:59:01.394Z,41.76
2019-02-27T13:01:33.865Z,41.56
2019-02-27T13:04:07.297Z,39.95
2019-02-27T13:06:39.422Z,40.74
2019-02-27T13:09:12.522Z,40.08
2019-02-27T13:11:46.364Z,40.24
2019-02-27T13:14:19.670Z,39.70
2019-02-27T13:16:52.372Z,39.09
2019-02-27T13:19:24.374Z,39.49
2019-02-27T13:21:57.008Z,39.47
2019-02-27T13:24:30.042Z,38.11
2019-02-27T13:27:03.720Z,37.99
2019-02-27T13:29:37.835Z,39.04
2019-02-27T13:32:10.828Z,38.87
2019-02-27T13:34:45.342Z,38.61
2019-02-27T13:37:18.776Z,38.90
2019-02-27T13:39:51.953Z,39.24
2019-02-27T13:42:24.326Z,38.25
2019-02-27T13:44:57.595Z,39.54
2019-02-27T13:47:31.677Z,38.52
2019-02-27T13:50:04.391Z,37.99
2019-02-27T13:52:37.096Z,38.28
2019-02-27T13:55:11.144Z,38.88
2019-02-27T13:57:45.340Z,38.71
2019-02-27T14:00:27.884Z,38.85
2019-02-27T14:03:01.679Z,38.62
2019-02-27T14:05:36.151Z,36.93
2019-02-27T14:08:09.420Z,37.32
2019-02-27T14:10:42.398Z,38.42
2019-02-27T14:13:15.874Z,38.92
2019-02-27T14:15:49.380Z,37.20
2019-02-27T14:18:22.053Z,39.30
2019-02-27T14:20:54.005Z,38.95
2019-02-27T14:23:27.314Z,38.89
2019-02-27T14:26:00.081Z,38.20
2019-02-27T14:28:32.831Z,38.27
2019-02-27T14:31:09.066Z,39.27
2019-02-27T14:33:40.499Z,38.46
2019-02-27T14:36:15.460Z,37.04
2019-02-27T14:38:48.537Z,38.07
2019-02-27T14:41:21.608Z,39.39
2019-02-27T14:43:57.637Z,38.93
2019-02-27T14:46:29.670Z,37.59
2019-02-27T14:49:02.717Z,39.61
2019-02-27T14:51:35.511Z,38.43
2019-02-27T14:54:08.767Z,39.82
2019-02-27T14:56:42.705Z,37.91
2019-02-27T14:59:16.256Z,38.39
2019-02-27T15:01:49.439Z,38.53
2019-02-27T15:04:22.453Z,38.85
2019-02-27T15:06:55.842Z,39.55
2019-02-27T15:09:36.512Z,40.09
2019-02-27T15:12:10.291Z,38.78
2019-02-27T15:14:43.083Z,38.31
2019-02-27T15:17:15.887Z,38.92
2019-02-27T15:19:47.728Z,39.27
2019-02-27T15:22:21.255Z,38.97
2019-02-27T15:24:53.612Z,39.35
2019-02-27T15:27:27.650Z,38.05
2019-02-27T15:30:01.298Z,37.88
2019-02-27T15:32:33.689Z,38.29
2019-02-27T15:35:08.153Z,38.51
2019-02-27T15:37:41.669Z,39.08
2019-02-27T15:40:17.422Z,37.72
2019-02-27T15:42:49.976Z,40.05
2019-02-27T15:45:23.349Z,38.38
2019-02-27T15:47:56.417Z,38.61
2019-02-27T15:50:29.003Z,39.18
2019-02-27T15:53:00.964Z,38.57
2019-02-27T15:55:35.229Z,39.61
2019-02-27T15:58:08.529Z,40.42
2019-02-27T16:00:41.334Z,42.09
2019-02-27T16:03:14.183Z,41.62
2019-02-27T16:05:46.557Z,42.38
2019-02-27T16:08:20.199Z,43.04
2019-02-27T16:10:55.253Z,43.11
2019-02-27T16:13:28.417Z,45.38
2019-02-27T16:16:01.522Z,44.33
2019-02-27T16:18:36.949Z,44.67
2019-02-27T16:21:09.443Z,44.84
2019-02-27T16:23:41.200Z,45.29
2019-02-27T16:26:14.270Z,45.25
2019-02-27T16:28:48.993Z,45.27
2019-02-27T16:31:23.747Z,45.46
2019-02-27T16:33:58.538Z,46.85
2019-02-27T16:36:36.241Z,47.97
2019-02-27T16:39:09.911Z,47.37
2019-02-27T16:41:45.156Z,48.36
2019-02-27T16:44:21.511Z,48.86
2019-02-27T16:46:52.442Z,50.54
2019-02-27T16:49:25.000Z,51.47
2019-02-27T16:51:57.878Z,50.34
2019-02-27T16:54:31.885Z,50.51
2019-02-27T16:57:05.417Z,50.89
2019-02-27T16:59:39.206Z,53.51
2019-02-27T17:02:11.909Z,55.22
2019-02-27T17:04:45.608Z,55.04
2019-02-27T17:07:18.868Z,53.60
2019-02-27T17:09:50.605Z,53.66
2019-02-27T17:12:23.499Z,54.87
2019-02-27T17:14:58.636Z,56.09
2019-02-27T17:17:31.828Z,56.48
2019-02-27T17:20:04.765Z,58.12
2019-02-27T17:22:37.891Z,58.18
2019-02-27T17:25:12.142Z,58.97
2019-02-27T17:27:49.819Z,60.00
2019-02-27T17:30:25.728Z,60.52
2019-02-27T17:33:01.446Z,61.90
2019-02-27T17:35:33.953Z,63.20
2019-02-27T17:38:06.879Z,64.03
2019-02-27T17:40:41.655Z,64.45
2019-02-27T17:43:14.323Z,63.81
2019-02-27T17:45:48.048Z,64.96
2019-02-27T17:48:21.145Z,64.71
2019-02-27T17:50:53.872Z,65.98
2019-02-27T17:53:26.787Z,66.05
2019-02-27T17:55:59.881Z,66.35
2019-02-27T17:58:34.852Z,67.00
2019-02-27T18:01:07.408Z,67.17
2019-02-27T18:03:41.847Z,67.63
2019-02-27T18:06:15.144Z,67.66
2019-02-27T18:08:51.562Z,67.68
2019-02-27T18:11:23.146Z,67.99
2019-02-27T18:13:56.159Z,68.25
2019-02-27T18:16:29.945Z,69.20
2019-02-27T18:19:07.027Z,69.38
2019-02-27T18:21:40.027Z,69.60
2019-02-27T18:24:13.730Z,70.01
2019-02-27T18:26:50.221Z,70.15
2019-02-27T18:29:22.526Z,70.36
2019-02-27T18:31:58.712Z,70.47
2019-02-27T18:34:31.068Z,71.24
2019-02-27T18:37:05.106Z,71.26
2019-02-27T18:39:38.699Z,71.45
2019-02-27T18:42:12.146Z,71.58
2019-02-27T18:44:44.019Z,72.20
2019-02-27T18:47:16.717Z,72.62
2019-02-27T18:49:52.295Z,73.52
2019-02-27T18:52:24.834Z,74.15
2019-02-27T18:54:57.854Z,74.17
2019-02-27T18:57:29.732Z,74.88
2019-02-27T19:00:03.278Z,75.10
2019-02-27T19:02:36.324Z,74.99
2019-02-27T19:05:10.108Z,75.00
2019-02-27T19:07:43.620Z,74.92
2019-02-27T19:10:15.625Z,75.14
2019-02-27T19:12:48.393Z,74.90
2019-02-27T19:15:22.555Z,75.04
2019-02-27T19:17:55.334Z,75.40
2019-02-27T19:20:30.071Z,75.72
2019-02-27T19:23:03.490Z,76.03
2019-02-27T19:25:36.638Z,76.19
2019-02-27T19:28:09.968Z,76.01
2019-02-27T19:30:42.934Z,75.88
2019-02-27T19:33:16.326Z,75.82
2019-02-27T19:35:50.426Z,76.06
2019-02-27T19:38:24.702Z,76.22
2019-02-27T19:40:58.287Z,76.44
2019-02-27T19:43:29.940Z,76.70
2019-02-27T19:46:02.599Z,77.14
2019-02-27T19:48:35.320Z,77.48
2019-02-27T19:51:08.050Z,77.70
2019-02-27T19:53:42.751Z,77.86
2019-02-27T19:56:16.610Z,77.78
2019-02-27T19:58:53.585Z,77.75
2019-02-27T20:01:34.978Z,77.89
2019-02-27T20:04:09.605Z,78.23
2019-02-27T20:06:45.206Z,78.21
2019-02-27T20:09:20.531Z,78.66
2019-02-27T20:11:55.775Z,79.15
2019-02-27T20:14:29.525Z,80.01
2019-02-27T20:17:04.750Z,80.94
2019-02-27T20:19:37.490Z,81.05
2019-02-27T20:22:15.479Z,81.26
2019-02-27T20:24:46.964Z,81.75
2019-02-27T20:27:19.068Z,82.33
2019-02-27T20:29:53.276Z,82.22
2019-02-27T20:32:28.550Z,82.12
2019-02-27T20:35:02.170Z,82.53
2019-02-27T20:37:41.464Z,83.02
2019-02-27T20:40:15.864Z,83.28
2019-02-27T20:42:52.092Z,83.36
2019-02-27T20:45:26.610Z,83.20
2019-02-27T20:48:02.528Z,83.79
2019-02-27T20:50:39.962Z,84.01
2019-02-27T20:53:13.503Z,84.69
2019-02-27T20:55:46.246Z,84.52
2019-02-27T20:58:22.015Z,84.26
2019-02-27T21:00:54.844Z,84.45
2019-02-27T21:03:28.070Z,84.45
2019-02-27T21:06:01.820Z,84.50
2019-02-27T21:08:36.100Z,84.31
2019-02-27T21:11:11.905Z,84.53
2019-02-27T21:13:49.595Z,84.97
2019-02-27T21:16:22.689Z,85.35
2019-02-27T21:18:56.094Z,85.72
2019-02-27T21:21:29.747Z,86.09
2019-02-27T21:24:06.239Z,86.38
2019-02-27T21:26:38.603Z,86.88
2019-02-27T21:29:12.356Z,87.16
2019-02-27T21:31:45.760Z,86.27
2019-02-27T21:34:20.042Z,86.55
2019-02-27T21:36:52.611Z,86.62
2019-02-27T21:39:25.376Z,86.48
2019-02-27T21:41:58.996Z,86.24
2019-02-27T21:44:31.599Z,86.35
2019-02-27T21:47:04.958Z,86.26
2019-02-27T21:49:39.841Z,86.95
2019-02-27T21:52:14.562Z,87.26
2019-02-27T21:54:48.157Z,87.23
2019-02-27T21:57:19.186Z,86.75
2019-02-27T21:59:52.253Z,87.25
2019-02-27T22:02:27.291Z,87.34
2019-02-27T22:05:00.302Z,87.24
2019-02-27T22:07:34.297Z,87.26
2019-02-27T22:10:09.601Z,87.42
2019-02-27T22:12:43.818Z,88.12
2019-02-27T22:15:22.986Z,88.37
2019-02-27T22:17:56.156Z,88.39
2019-02-27T22:20:28.964Z,88.45
2019-02-27T22:23:03.365Z,88.37
2019-02-27T22:25:36.066Z,88.75
2019-02-27T22:28:09.516Z,88.49
2019-02-27T22:30:42.227Z,88.92
2019-02-27T22:33:23.036Z,89.04
2019-02-27T22:36:02.225Z,89.58
2019-02-27T22:38:37.824Z,88.91
2019-02-27T22:41:11.103Z,89.84
2019-02-27T22:43:44.606Z,90.22
2019-02-27T22:46:17.669Z,90.39
2019-02-27T22:48:50.634Z,90.57
2019-02-27T22:51:23.288Z,90.50
2019-02-27T22:53:55.898Z,91.45
2019-02-27T22:56:29.191Z,91.57
2019-02-27T22:59:02.946Z,91.77
2019-02-27T23:01:51.746Z,92.70
2019-02-27T23:04:25.062Z,92.61
2019-02-27T23:06:57.493Z,91.98
2019-02-27T23:09:30.341Z,91.89
2019-02-27T23:12:02.887Z,91.74
2019-02-27T23:14:35.275Z,91.78
2019-02-27T23:17:07.862Z,91.75
2019-02-27T23:19:40.397Z,91.55
2019-02-27T23:22:12.876Z,92.90
2019-02-27T23:24:45.584Z,93.45
2019-02-27T23:27:18.132Z,93.61
2019-02-27T23:29:50.681Z,93.74
2019-02-27T23:32:28.414Z,93.70
2019-02-27T23:34:58.209Z,93.91
2019-02-27T23:37:29.703Z,94.25
2019-02-27T23:40:02.839Z,94.42
2019-02-27T23:42:36.683Z,94.31
2019-02-27T23:45:10.095Z,94.16
2019-02-27T23:47:43.215Z,94.26
2019-02-27T23:50:15.648Z,94.49
2019-02-27T23:52:49.380Z,94.30
2019-02-27T23:55:23.663Z,94.33
2019-02-27T23:57:58.573Z,94.22
